sensor_id;sensor_type;location;lat;lon;timestamp;P1;durP1;ratioP1;P2;durP2;ratioP2
7583;SDS011;74673;41.756;25.992;2024-01-15T00:01:56;1.20;;;1.20;;
7583;SDS011;74673;41.756;25.992;2024-01-15T00:04:24;1.30;;;1.30;;
7583;SDS011;74673;41.756;25.992;2024-01-15T00:06:51;1.30;;;1.30;;
7583;SDS011;74673;41.756;25.992;2024-01-15T00:09:18;1.20;;;1.20;;
7583;SDS011;74673;41.756;25.992;2024-01-15T00:11:45;1.20;;;1.20;;
7583;SDS011;74673;41.756;25.992;2024-01-15T00:14:13;1.20;;;1.20;;
7583;SDS011;74673;41.756;25.992;2024-01-15T00:16:45;1.30;;;1.30;;
7583;SDS011;74673;41.756;25.992;2024-01-15T00:19:12;1.20;;;1.20;;
7583;SDS011;74673;41.756;25.992;2024-01-15T00:21:41;1.17;;;1.17;;
7583;SDS011;74673;41.756;25.992;2024-01-15T00:24:08;1.30;;;1.30;;
7583;SDS011;74673;41.756;25.992;2024-01-15T00:26:35;1.37;;;1.37;;
7583;SDS011;74673;41.756;25.992;2024-01-15T00:29:02;1.20;;;1.20;;
7583;SDS011;74673;41.756;25.992;2024-01-15T00:31:29;1.20;;;1.20;;
7583;SDS011;74673;41.756;25.992;2024-01-15T00:33:57;1.30;;;1.30;;
7583;SDS011;74673;41.756;25.992;2024-01-15T00:36:24;1.30;;;1.30;;
7583;SDS011;74673;41.756;25.992;2024-01-15T00:38:53;1.30;;;1.30;;
7583;SDS011;74673;41.756;25.992;2024-01-15T00:41:23;1.40;;;1.40;;
7583;SDS011;74673;41.756;25.992;2024-01-15T00:43:50;1.50;;;1.50;;
7583;SDS011;74673;41.756;25.992;2024-01-15T00:46:17;1.20;;;1.20;;
7583;SDS011;74673;41.756;25.992;2024-01-15T00:48:44;1.23;;;1.23;;
7583;SDS011;74673;41.756;25.992;2024-01-15T00:51:12;1.40;;;1.40;;
7583;SDS011;74673;41.756;25.992;2024-01-15T00:53:39;1.20;;;1.20;;
7583;SDS011;74673;41.756;25.992;2024-01-15T00:56:08;1.20;;;1.20;;
7583;SDS011;74673;41.756;25.992;2024-01-15T00:58:35;1.30;;;1.30;;
7583;SDS011;74673;41.756;25.992;2024-01-15T01:01:02;1.37;;;1.37;;
7583;SDS011;74673;41.756;25.992;2024-01-15T01:03:29;1.50;;;1.50;;
7583;SDS011;74673;41.756;25.992;2024-01-15T01:05:57;1.20;;;1.20;;
7583;SDS011;74673;41.756;25.992;2024-01-15T01:08:24;1.30;;;1.30;;
7583;SDS011;74673;41.756;25.992;2024-01-15T01:10:51;1.33;;;1.33;;
7583;SDS011;74673;41.756;25.992;2024-01-15T01:13:19;1.30;;;1.30;;
7583;SDS011;74673;41.756;25.992;2024-01-15T01:15:46;1.40;;;1.40;;
7583;SDS011;74673;41.756;25.992;2024-01-15T01:18:13;1.30;;;1.30;;
7583;SDS011;74673;41.756;25.992;2024-01-15T01:20:41;1.40;;;1.40;;
7583;SDS011;74673;41.756;25.992;2024-01-15T01:23:08;1.40;;;1.40;;
7583;SDS011;74673;41.756;25.992;2024-01-15T01:25:35;1.37;;;1.37;;
7583;SDS011;74673;41.756;25.992;2024-01-15T01:28:02;1.30;;;1.30;;
7583;SDS011;74673;41.756;25.992;2024-01-15T01:30:31;1.20;;;1.20;;
7583;SDS011;74673;41.756;25.992;2024-01-15T01:32:58;1.20;;;1.20;;
7583;SDS011;74673;41.756;25.992;2024-01-15T01:35:25;1.30;;;1.30;;
7583;SDS011;74673;41.756;25.992;2024-01-15T01:37:52;1.30;;;1.30;;
7583;SDS011;74673;41.756;25.992;2024-01-15T01:40:20;1.30;;;1.30;;
7583;SDS011;74673;41.756;25.992;2024-01-15T01:42:47;1.20;;;1.20;;
7583;SDS011;74673;41.756;25.992;2024-01-15T01:45:14;1.20;;;1.20;;
7583;SDS011;74673;41.756;25.992;2024-01-15T01:47:43;1.20;;;1.20;;
7583;SDS011;74673;41.756;25.992;2024-01-15T01:50:10;1.27;;;1.27;;
7583;SDS011;74673;41.756;25.992;2024-01-15T01:52:38;1.20;;;1.20;;
7583;SDS011;74673;41.756;25.992;2024-01-15T01:55:05;1.10;;;1.10;;
7583;SDS011;74673;41.756;25.992;2024-01-15T01:57:33;1.13;;;1.13;;
7583;SDS011;74673;41.756;25.992;2024-01-15T02:00:01;1.17;;;1.17;;
7583;SDS011;74673;41.756;25.992;2024-01-15T02:02:30;1.30;;;1.30;;
7583;SDS011;74673;41.756;25.992;2024-01-15T02:04:59;1.13;;;1.13;;
7583;SDS011;74673;41.756;25.992;2024-01-15T02:07:26;1.20;;;1.20;;
7583;SDS011;74673;41.756;25.992;2024-01-15T02:09:53;1.20;;;1.20;;
7583;SDS011;74673;41.756;25.992;2024-01-15T02:12:20;1.23;;;1.23;;
7583;SDS011;74673;41.756;25.992;2024-01-15T02:14:47;1.20;;;1.20;;
7583;SDS011;74673;41.756;25.992;2024-01-15T02:17:15;1.20;;;1.20;;
7583;SDS011;74673;41.756;25.992;2024-01-15T02:19:42;1.17;;;1.17;;
7583;SDS011;74673;41.756;25.992;2024-01-15T02:22:10;1.33;;;1.33;;
7583;SDS011;74673;41.756;25.992;2024-01-15T02:24:39;1.30;;;1.30;;
7583;SDS011;74673;41.756;25.992;2024-01-15T02:27:06;1.40;;;1.40;;
7583;SDS011;74673;41.756;25.992;2024-01-15T02:29:33;1.10;;;1.10;;
7583;SDS011;74673;41.756;25.992;2024-01-15T02:32:04;1.20;;;1.20;;
7583;SDS011;74673;41.756;25.992;2024-01-15T02:34:31;1.20;;;1.20;;
7583;SDS011;74673;41.756;25.992;2024-01-15T02:36:58;1.20;;;1.20;;
7583;SDS011;74673;41.756;25.992;2024-01-15T02:39:25;1.20;;;1.20;;
7583;SDS011;74673;41.756;25.992;2024-01-15T02:41:55;1.30;;;1.30;;
7583;SDS011;74673;41.756;25.992;2024-01-15T02:44:23;1.20;;;1.20;;
7583;SDS011;74673;41.756;25.992;2024-01-15T02:46:49;1.10;;;1.10;;
7583;SDS011;74673;41.756;25.992;2024-01-15T02:49:16;1.30;;;1.30;;
7583;SDS011;74673;41.756;25.992;2024-01-15T02:51:43;1.30;;;1.30;;
7583;SDS011;74673;41.756;25.992;2024-01-15T02:54:10;1.10;;;1.10;;
7583;SDS011;74673;41.756;25.992;2024-01-15T02:56:37;1.27;;;1.27;;
7583;SDS011;74673;41.756;25.992;2024-01-15T02:59:05;1.20;;;1.20;;
7583;SDS011;74673;41.756;25.992;2024-01-15T03:01:32;1.13;;;1.13;;
7583;SDS011;74673;41.756;25.992;2024-01-15T03:03:59;1.20;;;1.20;;
7583;SDS011;74673;41.756;25.992;2024-01-15T03:06:26;1.17;;;1.17;;
7583;SDS011;74673;41.756;25.992;2024-01-15T03:08:53;1.20;;;1.20;;
7583;SDS011;74673;41.756;25.992;2024-01-15T03:11:20;1.20;;;1.20;;
7583;SDS011;74673;41.756;25.992;2024-01-15T03:13:47;1.10;;;1.10;;
7583;SDS011;74673;41.756;25.992;2024-01-15T03:16:16;1.27;;;1.27;;
7583;SDS011;74673;41.756;25.992;2024-01-15T03:18:45;1.30;;;1.30;;
7583;SDS011;74673;41.756;25.992;2024-01-15T03:21:12;1.30;;;1.30;;
7583;SDS011;74673;41.756;25.992;2024-01-15T03:23:39;1.30;;;1.30;;
7583;SDS011;74673;41.756;25.992;2024-01-15T03:26:06;1.30;;;1.30;;
7583;SDS011;74673;41.756;25.992;2024-01-15T03:28:33;1.40;;;1.40;;
7583;SDS011;74673;41.756;25.992;2024-01-15T03:31:00;1.20;;;1.20;;
7583;SDS011;74673;41.756;25.992;2024-01-15T03:33:28;1.40;;;1.40;;
7583;SDS011;74673;41.756;25.992;2024-01-15T03:35:55;1.40;;;1.40;;
7583;SDS011;74673;41.756;25.992;2024-01-15T03:38:22;1.20;;;1.20;;
7583;SDS011;74673;41.756;25.992;2024-01-15T03:40:49;1.30;;;1.30;;
7583;SDS011;74673;41.756;25.992;2024-01-15T03:43:16;1.30;;;1.30;;
7583;SDS011;74673;41.756;25.992;2024-01-15T03:45:43;1.20;;;1.20;;
7583;SDS011;74673;41.756;25.992;2024-01-15T03:48:11;1.20;;;1.20;;
7583;SDS011;74673;41.756;25.992;2024-01-15T03:50:39;1.30;;;1.30;;
7583;SDS011;74673;41.756;25.992;2024-01-15T03:53:06;1.20;;;1.20;;
7583;SDS011;74673;41.756;25.992;2024-01-15T03:55:33;1.10;;;1.10;;
7583;SDS011;74673;41.756;25.992;2024-01-15T03:58:00;1.30;;;1.30;;
7583;SDS011;74673;41.756;25.992;2024-01-15T04:00:27;1.30;;;1.30;;
7583;SDS011;74673;41.756;25.992;2024-01-15T04:02:54;1.23;;;1.23;;
7583;SDS011;74673;41.756;25.992;2024-01-15T04:05:21;1.20;;;1.20;;
7583;SDS011;74673;41.756;25.992;2024-01-15T04:07:50;1.20;;;1.20;;
7583;SDS011;74673;41.756;25.992;2024-01-15T04:10:17;1.30;;;1.30;;
7583;SDS011;74673;41.756;25.992;2024-01-15T04:12:44;1.20;;;1.20;;
7583;SDS011;74673;41.756;25.992;2024-01-15T04:15:12;1.20;;;1.20;;
7583;SDS011;74673;41.756;25.992;2024-01-15T04:17:39;1.20;;;1.20;;
7583;SDS011;74673;41.756;25.992;2024-01-15T04:20:06;1.20;;;1.20;;
7583;SDS011;74673;41.756;25.992;2024-01-15T04:22:34;1.30;;;1.30;;
7583;SDS011;74673;41.756;25.992;2024-01-15T04:25:04;1.40;;;1.40;;
7583;SDS011;74673;41.756;25.992;2024-01-15T04:27:31;1.27;;;1.27;;
7583;SDS011;74673;41.756;25.992;2024-01-15T04:29:58;1.20;;;1.20;;
7583;SDS011;74673;41.756;25.992;2024-01-15T04:32:26;1.20;;;1.20;;
7583;SDS011;74673;41.756;25.992;2024-01-15T04:34:53;1.20;;;1.20;;
7583;SDS011;74673;41.756;25.992;2024-01-15T04:37:20;1.30;;;1.30;;
7583;SDS011;74673;41.756;25.992;2024-01-15T04:39:47;1.30;;;1.30;;
7583;SDS011;74673;41.756;25.992;2024-01-15T04:42:15;1.20;;;1.20;;
7583;SDS011;74673;41.756;25.992;2024-01-15T04:44:42;1.30;;;1.30;;
7583;SDS011;74673;41.756;25.992;2024-01-15T04:47:09;1.23;;;1.23;;
7583;SDS011;74673;41.756;25.992;2024-01-15T04:49:36;1.40;;;1.40;;
7583;SDS011;74673;41.756;25.992;2024-01-15T04:52:04;1.20;;;1.20;;
7583;SDS011;74673;41.756;25.992;2024-01-15T04:54:31;1.30;;;1.30;;
7583;SDS011;74673;41.756;25.992;2024-01-15T04:56:58;1.40;;;1.40;;
7583;SDS011;74673;41.756;25.992;2024-01-15T04:59:26;1.20;;;1.20;;
7583;SDS011;74673;41.756;25.992;2024-01-15T05:01:53;1.20;;;1.20;;
7583;SDS011;74673;41.756;25.992;2024-01-15T05:04:21;1.27;;;1.27;;
7583;SDS011;74673;41.756;25.992;2024-01-15T05:06:49;1.30;;;1.30;;
7583;SDS011;74673;41.756;25.992;2024-01-15T05:09:16;1.30;;;1.30;;
7583;SDS011;74673;41.756;25.992;2024-01-15T05:11:44;1.20;;;1.20;;
7583;SDS011;74673;41.756;25.992;2024-01-15T05:14:11;1.40;;;1.40;;
7583;SDS011;74673;41.756;25.992;2024-01-15T05:16:40;1.33;;;1.33;;
7583;SDS011;74673;41.756;25.992;2024-01-15T05:19:13;1.60;;;1.60;;
7583;SDS011;74673;41.756;25.992;2024-01-15T05:21:40;1.40;;;1.40;;
7583;SDS011;74673;41.756;25.992;2024-01-15T05:24:07;1.20;;;1.20;;
7583;SDS011;74673;41.756;25.992;2024-01-15T05:26:35;1.30;;;1.30;;
7583;SDS011;74673;41.756;25.992;2024-01-15T05:29:02;1.20;;;1.20;;
7583;SDS011;74673;41.756;25.992;2024-01-15T05:31:29;1.40;;;1.40;;
7583;SDS011;74673;41.756;25.992;2024-01-15T05:33:58;1.50;;;1.50;;
7583;SDS011;74673;41.756;25.992;2024-01-15T05:36:25;1.37;;;1.37;;
7583;SDS011;74673;41.756;25.992;2024-01-15T05:38:52;1.30;;;1.30;;
7583;SDS011;74673;41.756;25.992;2024-01-15T05:41:19;1.33;;;1.33;;
7583;SDS011;74673;41.756;25.992;2024-01-15T05:43:47;1.20;;;1.20;;
7583;SDS011;74673;41.756;25.992;2024-01-15T05:46:14;1.40;;;1.40;;
7583;SDS011;74673;41.756;25.992;2024-01-15T05:48:41;1.30;;;1.30;;
7583;SDS011;74673;41.756;25.992;2024-01-15T05:51:09;1.30;;;1.30;;
7583;SDS011;74673;41.756;25.992;2024-01-15T05:53:36;1.40;;;1.40;;
7583;SDS011;74673;41.756;25.992;2024-01-15T05:56:05;1.40;;;1.40;;
7583;SDS011;74673;41.756;25.992;2024-01-15T05:58:33;1.40;;;1.40;;
7583;SDS011;74673;41.756;25.992;2024-01-15T06:01:00;1.40;;;1.40;;
7583;SDS011;74673;41.756;25.992;2024-01-15T06:03:27;1.40;;;1.40;;
7583;SDS011;74673;41.756;25.992;2024-01-15T06:05:54;1.40;;;1.40;;
7583;SDS011;74673;41.756;25.992;2024-01-15T06:08:23;1.20;;;1.20;;
7583;SDS011;74673;41.756;25.992;2024-01-15T06:10:51;1.50;;;1.50;;
7583;SDS011;74673;41.756;25.992;2024-01-15T06:13:19;1.27;;;1.27;;
7583;SDS011;74673;41.756;25.992;2024-01-15T06:15:46;1.30;;;1.30;;
7583;SDS011;74673;41.756;25.992;2024-01-15T06:18:13;1.30;;;1.30;;
7583;SDS011;74673;41.756;25.992;2024-01-15T06:20:40;1.40;;;1.40;;
7583;SDS011;74673;41.756;25.992;2024-01-15T06:23:08;1.30;;;1.30;;
7583;SDS011;74673;41.756;25.992;2024-01-15T06:25:36;1.30;;;1.30;;
7583;SDS011;74673;41.756;25.992;2024-01-15T06:28:04;1.30;;;1.30;;
7583;SDS011;74673;41.756;25.992;2024-01-15T06:30:31;1.30;;;1.30;;
7583;SDS011;74673;41.756;25.992;2024-01-15T06:32:58;1.30;;;1.30;;
7583;SDS011;74673;41.756;25.992;2024-01-15T06:35:25;1.20;;;1.20;;
7583;SDS011;74673;41.756;25.992;2024-01-15T06:37:52;1.23;;;1.23;;
7583;SDS011;74673;41.756;25.992;2024-01-15T06:40:19;1.53;;;1.53;;
7583;SDS011;74673;41.756;25.992;2024-01-15T06:42:48;1.30;;;1.30;;
7583;SDS011;74673;41.756;25.992;2024-01-15T06:45:15;1.30;;;1.30;;
7583;SDS011;74673;41.756;25.992;2024-01-15T06:47:42;1.30;;;1.30;;
7583;SDS011;74673;41.756;25.992;2024-01-15T06:50:10;1.47;;;1.47;;
7583;SDS011;74673;41.756;25.992;2024-01-15T06:52:37;1.30;;;1.30;;
7583;SDS011;74673;41.756;25.992;2024-01-15T06:55:04;1.10;;;1.10;;
7583;SDS011;74673;41.756;25.992;2024-01-15T06:57:32;1.33;;;1.33;;
7583;SDS011;74673;41.756;25.992;2024-01-15T07:00:01;1.20;;;1.20;;
7583;SDS011;74673;41.756;25.992;2024-01-15T07:02:32;1.20;;;1.20;;
7583;SDS011;74673;41.756;25.992;2024-01-15T07:05:00;1.37;;;1.37;;
7583;SDS011;74673;41.756;25.992;2024-01-15T07:07:27;1.33;;;1.33;;
7583;SDS011;74673;41.756;25.992;2024-01-15T07:09:55;1.30;;;1.30;;
7583;SDS011;74673;41.756;25.992;2024-01-15T07:12:22;1.50;;;1.50;;
7583;SDS011;74673;41.756;25.992;2024-01-15T07:14:49;1.67;;;1.63;;
7583;SDS011;74673;41.756;25.992;2024-01-15T07:17:18;1.77;;;1.67;;
7583;SDS011;74673;41.756;25.992;2024-01-15T07:19:46;1.50;;;1.50;;
7583;SDS011;74673;41.756;25.992;2024-01-15T07:22:14;2.07;;;1.97;;
7583;SDS011;74673;41.756;25.992;2024-01-15T07:24:42;1.87;;;1.83;;
7583;SDS011;74673;41.756;25.992;2024-01-15T07:27:09;1.70;;;1.60;;
7583;SDS011;74673;41.756;25.992;2024-01-15T07:29:37;1.53;;;1.53;;
7583;SDS011;74673;41.756;25.992;2024-01-15T07:32:04;1.80;;;1.70;;
7583;SDS011;74673;41.756;25.992;2024-01-15T07:34:34;1.50;;;1.50;;
7583;SDS011;74673;41.756;25.992;2024-01-15T07:37:02;1.90;;;1.83;;
7583;SDS011;74673;41.756;25.992;2024-01-15T07:39:29;1.57;;;1.57;;
7583;SDS011;74673;41.756;25.992;2024-01-15T07:41:56;1.70;;;1.70;;
7583;SDS011;74673;41.756;25.992;2024-01-15T07:44:24;1.73;;;1.67;;
7583;SDS011;74673;41.756;25.992;2024-01-15T07:46:51;1.70;;;1.70;;
7583;SDS011;74673;41.756;25.992;2024-01-15T07:49:18;1.50;;;1.50;;
7583;SDS011;74673;41.756;25.992;2024-01-15T07:51:47;1.97;;;1.90;;
7583;SDS011;74673;41.756;25.992;2024-01-15T07:54:14;1.80;;;1.80;;
7583;SDS011;74673;41.756;25.992;2024-01-15T07:56:52;1.60;;;1.60;;
7583;SDS011;74673;41.756;25.992;2024-01-15T07:59:20;1.93;;;1.83;;
7583;SDS011;74673;41.756;25.992;2024-01-15T08:01:47;1.70;;;1.70;;
7583;SDS011;74673;41.756;25.992;2024-01-15T08:04:14;1.57;;;1.57;;
7583;SDS011;74673;41.756;25.992;2024-01-15T08:06:41;1.70;;;1.70;;
7583;SDS011;74673;41.756;25.992;2024-01-15T08:09:10;1.53;;;1.53;;
7583;SDS011;74673;41.756;25.992;2024-01-15T08:11:39;1.73;;;1.73;;
7583;SDS011;74673;41.756;25.992;2024-01-15T08:14:06;1.67;;;1.67;;
7583;SDS011;74673;41.756;25.992;2024-01-15T08:16:34;1.57;;;1.57;;
7583;SDS011;74673;41.756;25.992;2024-01-15T08:19:01;1.70;;;1.70;;
7583;SDS011;74673;41.756;25.992;2024-01-15T08:21:28;2.00;;;1.90;;
7583;SDS011;74673;41.756;25.992;2024-01-15T08:23:57;1.90;;;1.90;;
7583;SDS011;74673;41.756;25.992;2024-01-15T08:26:25;1.73;;;1.73;;
7583;SDS011;74673;41.756;25.992;2024-01-15T08:28:53;1.80;;;1.80;;
7583;SDS011;74673;41.756;25.992;2024-01-15T08:31:20;1.70;;;1.70;;
7583;SDS011;74673;41.756;25.992;2024-01-15T08:33:47;2.00;;;1.90;;
7583;SDS011;74673;41.756;25.992;2024-01-15T08:36:14;1.50;;;1.50;;
7583;SDS011;74673;41.756;25.992;2024-01-15T08:38:41;1.80;;;1.80;;
7583;SDS011;74673;41.756;25.992;2024-01-15T08:41:09;1.93;;;1.87;;
7583;SDS011;74673;41.756;25.992;2024-01-15T08:43:37;1.67;;;1.67;;
7583;SDS011;74673;41.756;25.992;2024-01-15T08:46:04;1.90;;;1.80;;
7583;SDS011;74673;41.756;25.992;2024-01-15T08:48:32;1.60;;;1.60;;
7583;SDS011;74673;41.756;25.992;2024-01-15T08:51:02;1.60;;;1.60;;
7583;SDS011;74673;41.756;25.992;2024-01-15T08:53:29;1.63;;;1.63;;
7583;SDS011;74673;41.756;25.992;2024-01-15T08:55:56;1.57;;;1.57;;
7583;SDS011;74673;41.756;25.992;2024-01-15T08:58:23;1.60;;;1.60;;
7583;SDS011;74673;41.756;25.992;2024-01-15T09:00:52;1.63;;;1.63;;
7583;SDS011;74673;41.756;25.992;2024-01-15T09:03:19;1.60;;;1.60;;
7583;SDS011;74673;41.756;25.992;2024-01-15T09:05:46;1.47;;;1.47;;
7583;SDS011;74673;41.756;25.992;2024-01-15T09:08:15;1.40;;;1.40;;
7583;SDS011;74673;41.756;25.992;2024-01-15T09:10:42;1.50;;;1.50;;
7583;SDS011;74673;41.756;25.992;2024-01-15T09:13:09;1.60;;;1.60;;
7583;SDS011;74673;41.756;25.992;2024-01-15T09:15:36;1.30;;;1.30;;
7583;SDS011;74673;41.756;25.992;2024-01-15T09:18:05;1.50;;;1.50;;
7583;SDS011;74673;41.756;25.992;2024-01-15T09:20:32;1.70;;;1.67;;
7583;SDS011;74673;41.756;25.992;2024-01-15T09:22:59;1.60;;;1.60;;
7583;SDS011;74673;41.756;25.992;2024-01-15T09:25:26;1.70;;;1.67;;
7583;SDS011;74673;41.756;25.992;2024-01-15T09:27:54;1.73;;;1.70;;
7583;SDS011;74673;41.756;25.992;2024-01-15T09:30:21;1.60;;;1.60;;
7583;SDS011;74673;41.756;25.992;2024-01-15T09:32:48;1.40;;;1.40;;
7583;SDS011;74673;41.756;25.992;2024-01-15T09:35:16;1.50;;;1.50;;
7583;SDS011;74673;41.756;25.992;2024-01-15T09:37:44;1.57;;;1.57;;
7583;SDS011;74673;41.756;25.992;2024-01-15T09:40:12;1.73;;;1.67;;
7583;SDS011;74673;41.756;25.992;2024-01-15T09:42:40;1.90;;;1.80;;
7583;SDS011;74673;41.756;25.992;2024-01-15T09:45:08;1.97;;;1.87;;
7583;SDS011;74673;41.756;25.992;2024-01-15T09:47:35;1.90;;;1.90;;
7583;SDS011;74673;41.756;25.992;2024-01-15T09:50:03;2.20;;;2.10;;
7583;SDS011;74673;41.756;25.992;2024-01-15T09:52:33;1.70;;;1.70;;
7583;SDS011;74673;41.756;25.992;2024-01-15T09:55:02;1.83;;;1.73;;
7583;SDS011;74673;41.756;25.992;2024-01-15T09:57:31;1.80;;;1.70;;
7583;SDS011;74673;41.756;25.992;2024-01-15T09:59:58;1.60;;;1.60;;
7583;SDS011;74673;41.756;25.992;2024-01-15T10:02:26;1.83;;;1.80;;
7583;SDS011;74673;41.756;25.992;2024-01-15T10:04:53;1.77;;;1.70;;
7583;SDS011;74673;41.756;25.992;2024-01-15T10:07:20;1.33;;;1.33;;
7583;SDS011;74673;41.756;25.992;2024-01-15T10:09:49;1.43;;;1.43;;
7583;SDS011;74673;41.756;25.992;2024-01-15T10:12:16;1.60;;;1.60;;
7583;SDS011;74673;41.756;25.992;2024-01-15T10:14:43;1.43;;;1.43;;
7583;SDS011;74673;41.756;25.992;2024-01-15T10:17:14;1.90;;;1.80;;
7583;SDS011;74673;41.756;25.992;2024-01-15T10:19:42;1.50;;;1.50;;
7583;SDS011;74673;41.756;25.992;2024-01-15T10:22:09;1.53;;;1.53;;
7583;SDS011;74673;41.756;25.992;2024-01-15T10:24:36;1.50;;;1.50;;
7583;SDS011;74673;41.756;25.992;2024-01-15T10:27:08;1.40;;;1.40;;
7583;SDS011;74673;41.756;25.992;2024-01-15T10:29:36;1.50;;;1.50;;
7583;SDS011;74673;41.756;25.992;2024-01-15T10:32:06;1.50;;;1.50;;
7583;SDS011;74673;41.756;25.992;2024-01-15T10:34:37;1.83;;;1.73;;
7583;SDS011;74673;41.756;25.992;2024-01-15T10:37:05;1.83;;;1.80;;
7583;SDS011;74673;41.756;25.992;2024-01-15T10:39:34;1.83;;;1.73;;
7583;SDS011;74673;41.756;25.992;2024-01-15T10:42:01;2.00;;;1.90;;
7583;SDS011;74673;41.756;25.992;2024-01-15T10:44:30;1.90;;;1.80;;
7583;SDS011;74673;41.756;25.992;2024-01-15T10:46:57;1.97;;;1.87;;
7583;SDS011;74673;41.756;25.992;2024-01-15T10:49:24;1.73;;;1.70;;
7583;SDS011;74673;41.756;25.992;2024-01-15T10:51:53;1.60;;;1.60;;
7583;SDS011;74673;41.756;25.992;2024-01-15T10:54:20;1.93;;;1.83;;
7583;SDS011;74673;41.756;25.992;2024-01-15T10:56:48;1.57;;;1.57;;
7583;SDS011;74673;41.756;25.992;2024-01-15T10:59:16;1.77;;;1.70;;
7583;SDS011;74673;41.756;25.992;2024-01-15T11:01:46;1.43;;;1.43;;
7583;SDS011;74673;41.756;25.992;2024-01-15T11:04:13;1.50;;;1.50;;
7583;SDS011;74673;41.756;25.992;2024-01-15T11:06:42;2.00;;;1.90;;
7583;SDS011;74673;41.756;25.992;2024-01-15T11:09:10;1.37;;;1.37;;
7583;SDS011;74673;41.756;25.992;2024-01-15T11:11:40;1.30;;;1.30;;
7583;SDS011;74673;41.756;25.992;2024-01-15T11:14:08;1.53;;;1.53;;
7583;SDS011;74673;41.756;25.992;2024-01-15T11:19:25;1.60;;;1.60;;
7583;SDS011;74673;41.756;25.992;2024-01-15T11:21:52;1.60;;;1.60;;
7583;SDS011;74673;41.756;25.992;2024-01-15T11:24:33;1.60;;;1.60;;
7583;SDS011;74673;41.756;25.992;2024-01-15T11:27:01;1.70;;;1.70;;
7583;SDS011;74673;41.756;25.992;2024-01-15T11:29:29;1.50;;;1.50;;
7583;SDS011;74673;41.756;25.992;2024-01-15T11:32:00;1.50;;;1.50;;
7583;SDS011;74673;41.756;25.992;2024-01-15T11:37:20;1.57;;;1.57;;
7583;SDS011;74673;41.756;25.992;2024-01-15T11:39:50;1.50;;;1.50;;
7583;SDS011;74673;41.756;25.992;2024-01-15T11:42:19;1.40;;;1.40;;
7583;SDS011;74673;41.756;25.992;2024-01-15T11:44:46;1.40;;;1.40;;
7583;SDS011;74673;41.756;25.992;2024-01-15T11:47:15;1.40;;;1.40;;
7583;SDS011;74673;41.756;25.992;2024-01-15T11:49:56;1.30;;;1.30;;
7583;SDS011;74673;41.756;25.992;2024-01-15T11:52:26;1.50;;;1.50;;
7583;SDS011;74673;41.756;25.992;2024-01-15T11:54:55;1.33;;;1.33;;
7583;SDS011;74673;41.756;25.992;2024-01-15T11:57:31;1.53;;;1.53;;
7583;SDS011;74673;41.756;25.992;2024-01-15T12:00:02;1.47;;;1.47;;
7583;SDS011;74673;41.756;25.992;2024-01-15T12:02:31;1.30;;;1.30;;
7583;SDS011;74673;41.756;25.992;2024-01-15T12:04:59;1.33;;;1.33;;
7583;SDS011;74673;41.756;25.992;2024-01-15T12:07:26;1.40;;;1.40;;
7583;SDS011;74673;41.756;25.992;2024-01-15T12:09:53;1.43;;;1.43;;
7583;SDS011;74673;41.756;25.992;2024-01-15T12:12:23;1.20;;;1.20;;
7583;SDS011;74673;41.756;25.992;2024-01-15T12:14:53;1.20;;;1.20;;
7583;SDS011;74673;41.756;25.992;2024-01-15T12:17:21;1.63;;;1.63;;
7583;SDS011;74673;41.756;25.992;2024-01-15T12:19:49;1.53;;;1.53;;
7583;SDS011;74673;41.756;25.992;2024-01-15T12:22:16;1.20;;;1.20;;
7583;SDS011;74673;41.756;25.992;2024-01-15T12:24:44;1.63;;;1.57;;
7583;SDS011;74673;41.756;25.992;2024-01-15T12:27:11;1.67;;;1.67;;
7583;SDS011;74673;41.756;25.992;2024-01-15T12:29:38;1.30;;;1.30;;
7583;SDS011;74673;41.756;25.992;2024-01-15T12:32:05;1.57;;;1.57;;
7583;SDS011;74673;41.756;25.992;2024-01-15T12:34:33;1.20;;;1.20;;
7583;SDS011;74673;41.756;25.992;2024-01-15T12:37:01;1.30;;;1.30;;
7583;SDS011;74673;41.756;25.992;2024-01-15T12:39:29;1.20;;;1.20;;
7583;SDS011;74673;41.756;25.992;2024-01-15T12:41:57;1.20;;;1.20;;
7583;SDS011;74673;41.756;25.992;2024-01-15T12:44:24;1.20;;;1.20;;
7583;SDS011;74673;41.756;25.992;2024-01-15T12:46:52;1.27;;;1.27;;
7583;SDS011;74673;41.756;25.992;2024-01-15T12:49:19;1.53;;;1.53;;
7583;SDS011;74673;41.756;25.992;2024-01-15T12:51:51;1.50;;;1.50;;
7583;SDS011;74673;41.756;25.992;2024-01-15T12:54:20;1.40;;;1.40;;
7583;SDS011;74673;41.756;25.992;2024-01-15T12:56:48;1.73;;;1.67;;
7583;SDS011;74673;41.756;25.992;2024-01-15T12:59:16;1.50;;;1.50;;
7583;SDS011;74673;41.756;25.992;2024-01-15T13:01:43;1.53;;;1.53;;
7583;SDS011;74673;41.756;25.992;2024-01-15T13:04:10;1.60;;;1.60;;
7583;SDS011;74673;41.756;25.992;2024-01-15T13:06:38;1.90;;;1.80;;
7583;SDS011;74673;41.756;25.992;2024-01-15T13:09:05;1.40;;;1.40;;
7583;SDS011;74673;41.756;25.992;2024-01-15T13:11:33;1.73;;;1.70;;
7583;SDS011;74673;41.756;25.992;2024-01-15T13:14:01;1.60;;;1.60;;
7583;SDS011;74673;41.756;25.992;2024-01-15T13:16:28;1.50;;;1.50;;
7583;SDS011;74673;41.756;25.992;2024-01-15T13:18:55;1.70;;;1.70;;
7583;SDS011;74673;41.756;25.992;2024-01-15T13:21:22;1.27;;;1.27;;
7583;SDS011;74673;41.756;25.992;2024-01-15T13:23:49;1.50;;;1.50;;
7583;SDS011;74673;41.756;25.992;2024-01-15T13:26:17;1.30;;;1.30;;
7583;SDS011;74673;41.756;25.992;2024-01-15T13:28:47;1.50;;;1.50;;
7583;SDS011;74673;41.756;25.992;2024-01-15T13:31:14;1.47;;;1.47;;
7583;SDS011;74673;41.756;25.992;2024-01-15T13:33:41;1.60;;;1.60;;
7583;SDS011;74673;41.756;25.992;2024-01-15T13:36:08;1.40;;;1.40;;
7583;SDS011;74673;41.756;25.992;2024-01-15T13:38:35;1.80;;;1.70;;
7583;SDS011;74673;41.756;25.992;2024-01-15T13:41:03;1.90;;;1.80;;
7583;SDS011;74673;41.756;25.992;2024-01-15T13:43:31;1.80;;;1.70;;
7583;SDS011;74673;41.756;25.992;2024-01-15T13:46:00;2.20;;;2.10;;
7583;SDS011;74673;41.756;25.992;2024-01-15T13:48:30;2.10;;;2.00;;
7583;SDS011;74673;41.756;25.992;2024-01-15T13:50:57;1.90;;;1.80;;
7583;SDS011;74673;41.756;25.992;2024-01-15T13:53:25;1.83;;;1.73;;
7583;SDS011;74673;41.756;25.992;2024-01-15T13:55:52;1.90;;;1.80;;
7583;SDS011;74673;41.756;25.992;2024-01-15T13:58:19;1.50;;;1.50;;
7583;SDS011;74673;41.756;25.992;2024-01-15T14:00:47;1.57;;;1.57;;
7583;SDS011;74673;41.756;25.992;2024-01-15T14:03:16;1.83;;;1.73;;
7583;SDS011;74673;41.756;25.992;2024-01-15T14:05:44;1.43;;;1.43;;
7583;SDS011;74673;41.756;25.992;2024-01-15T14:08:11;2.00;;;1.90;;
7583;SDS011;74673;41.756;25.992;2024-01-15T14:10:38;2.00;;;1.90;;
7583;SDS011;74673;41.756;25.992;2024-01-15T14:13:05;1.50;;;1.50;;
7583;SDS011;74673;41.756;25.992;2024-01-15T14:15:32;1.50;;;1.50;;
7583;SDS011;74673;41.756;25.992;2024-01-15T14:17:59;1.67;;;1.60;;
7583;SDS011;74673;41.756;25.992;2024-01-15T14:20:28;1.50;;;1.50;;
7583;SDS011;74673;41.756;25.992;2024-01-15T14:22:55;1.80;;;1.70;;
7583;SDS011;74673;41.756;25.992;2024-01-15T14:25:23;1.87;;;1.77;;
7583;SDS011;74673;41.756;25.992;2024-01-15T14:27:50;2.00;;;1.90;;
7583;SDS011;74673;41.756;25.992;2024-01-15T14:30:17;1.20;;;1.20;;
7583;SDS011;74673;41.756;25.992;2024-01-15T14:32:44;1.60;;;1.60;;
7583;SDS011;74673;41.756;25.992;2024-01-15T14:35:11;1.93;;;1.83;;
7583;SDS011;74673;41.756;25.992;2024-01-15T14:37:40;1.93;;;1.83;;
7583;SDS011;74673;41.756;25.992;2024-01-15T14:40:07;2.00;;;1.90;;
7583;SDS011;74673;41.756;25.992;2024-01-15T14:42:35;1.67;;;1.57;;
7583;SDS011;74673;41.756;25.992;2024-01-15T14:45:03;1.60;;;1.60;;
7583;SDS011;74673;41.756;25.992;2024-01-15T14:47:36;1.50;;;1.47;;
7583;SDS011;74673;41.756;25.992;2024-01-15T14:50:04;1.90;;;1.80;;
7583;SDS011;74673;41.756;25.992;2024-01-15T14:52:33;1.50;;;1.47;;
7583;SDS011;74673;41.756;25.992;2024-01-15T14:55:01;1.93;;;1.83;;
7583;SDS011;74673;41.756;25.992;2024-01-15T14:57:30;1.60;;;1.60;;